sensor_id;sensor_type;location;lat;lon;timestamp;pressure;altitude;pressure_sealevel;temperature;humidity
75136;BME280;63707;52.212;9.540;2022-10-31T00:01:28;100453.16;;;13.39;74.96
75136;BME280;63707;52.212;9.540;2022-10-31T00:03:54;100458.25;;;13.22;75.98
75136;BME280;63707;52.212;9.540;2022-10-31T00:06:20;100455.09;;;13.19;75.98
75136;BME280;63707;52.212;9.540;2022-10-31T00:08:46;100459.09;;;13.10;76.38
75136;BME280;63707;52.212;9.540;2022-10-31T00:11:12;100459.75;;;12.99;76.93
75136;BME280;63707;52.212;9.540;2022-10-31T00:13:38;100458.28;;;12.89;77.50
75136;BME280;63707;52.212;9.540;2022-10-31T00:16:06;100461.22;;;12.81;77.32
75136;BME280;63707;52.212;9.540;2022-10-31T00:18:37;100460.38;;;12.87;77.13
75136;BME280;63707;52.212;9.540;2022-10-31T00:21:03;100471.13;;;12.82;77.68
75136;BME280;63707;52.212;9.540;2022-10-31T00:23:29;100472.78;;;12.70;77.87
75136;BME280;63707;52.212;9.540;2022-10-31T00:26:00;100475.50;;;12.70;77.98
75136;BME280;63707;52.212;9.540;2022-10-31T00:28:25;100473.44;;;12.85;77.13
75136;BME280;63707;52.212;9.540;2022-10-31T00:30:51;100488.75;;;12.67;78.16
75136;BME280;63707;52.212;9.540;2022-10-31T00:33:18;100487.91;;;12.59;78.38
75136;BME280;63707;52.212;9.540;2022-10-31T00:35:49;100488.13;;;12.58;78.84
75136;BME280;63707;52.212;9.540;2022-10-31T00:38:15;100490.44;;;12.54;78.77
75136;BME280;63707;52.212;9.540;2022-10-31T00:40:41;100491.06;;;12.43;79.21
75136;BME280;63707;52.212;9.540;2022-10-31T00:43:06;100487.69;;;12.35;79.40
75136;BME280;63707;52.212;9.540;2022-10-31T00:45:32;100487.63;;;12.21;80.23
75136;BME280;63707;52.212;9.540;2022-10-31T00:47:57;100493.09;;;12.15;80.41
75136;BME280;63707;52.212;9.540;2022-10-31T00:50:24;100490.16;;;12.23;80.37
75136;BME280;63707;52.212;9.540;2022-10-31T00:52:49;100496.44;;;12.17;80.25
75136;BME280;63707;52.212;9.540;2022-10-31T00:55:15;100502.13;;;12.22;80.23
75136;BME280;63707;52.212;9.540;2022-10-31T00:57:40;100498.75;;;12.20;81.11
75136;BME280;63707;52.212;9.540;2022-10-31T01:00:07;100498.56;;;12.21;80.91
75136;BME280;63707;52.212;9.540;2022-10-31T01:02:33;100513.53;;;12.32;80.44
75136;BME280;63707;52.212;9.540;2022-10-31T01:04:58;100504.94;;;12.42;81.00
75136;BME280;63707;52.212;9.540;2022-10-31T01:07:25;100513.16;;;12.55;79.19
75136;BME280;63707;52.212;9.540;2022-10-31T01:09:50;100511.47;;;12.54;79.27
75136;BME280;63707;52.212;9.540;2022-10-31T01:12:16;100517.75;;;12.48;79.37
75136;BME280;63707;52.212;9.540;2022-10-31T01:14:43;100513.13;;;12.48;79.23
75136;BME280;63707;52.212;9.540;2022-10-31T01:17:08;100525.31;;;12.39;79.51
75136;BME280;63707;52.212;9.540;2022-10-31T01:19:34;100525.31;;;12.39;79.79
75136;BME280;63707;52.212;9.540;2022-10-31T01:22:01;100519.66;;;12.47;79.84
75136;BME280;63707;52.212;9.540;2022-10-31T01:24:28;100517.13;;;12.52;79.51
75136;BME280;63707;52.212;9.540;2022-10-31T01:26:54;100522.41;;;12.60;79.02
75136;BME280;63707;52.212;9.540;2022-10-31T01:29:19;100521.16;;;12.63;79.13
75136;BME280;63707;52.212;9.540;2022-10-31T01:31:45;100520.50;;;12.61;79.56
75136;BME280;63707;52.212;9.540;2022-10-31T01:34:13;100522.63;;;12.59;79.24
75136;BME280;63707;52.212;9.540;2022-10-31T01:36:39;100526.81;;;12.55;79.50
75136;BME280;63707;52.212;9.540;2022-10-31T01:39:06;100519.44;;;12.49;79.95
75136;BME280;63707;52.212;9.540;2022-10-31T01:41:35;100522.59;;;12.46;80.17
75136;BME280;63707;52.212;9.540;2022-10-31T01:44:43;100517.97;;;12.46;80.12
75136;BME280;63707;52.212;9.540;2022-10-31T01:46:52;100520.09;;;12.51;80.17
75136;BME280;63707;52.212;9.540;2022-10-31T01:49:24;100512.31;;;12.54;80.51
75136;BME280;63707;52.212;9.540;2022-10-31T01:51:58;100523.25;;;12.54;80.32
75136;BME280;63707;52.212;9.540;2022-10-31T01:54:28;100526.19;;;12.53;80.74
75136;BME280;63707;52.212;9.540;2022-10-31T01:56:57;100524.28;;;12.47;80.91
75136;BME280;63707;52.212;9.540;2022-10-31T01:59:27;100521.72;;;12.32;81.36
75136;BME280;63707;52.212;9.540;2022-10-31T02:01:54;100523.16;;;12.28;81.26
75136;BME280;63707;52.212;9.540;2022-10-31T02:04:20;100523.97;;;12.15;81.89
75136;BME280;63707;52.212;9.540;2022-10-31T02:06:53;100528.16;;;12.05;82.44
75136;BME280;63707;52.212;9.540;2022-10-31T02:09:21;100533.16;;;12.01;83.37
75136;BME280;63707;52.212;9.540;2022-10-31T02:11:49;100529.16;;;11.97;83.09
75136;BME280;63707;52.212;9.540;2022-10-31T02:14:18;100529.56;;;11.94;83.70
75136;BME280;63707;52.212;9.540;2022-10-31T02:16:43;100526.75;;;11.81;84.78
75136;BME280;63707;52.212;9.540;2022-10-31T02:19:14;100533.19;;;11.66;84.95
75136;BME280;63707;52.212;9.540;2022-10-31T02:21:48;100533.78;;;11.62;85.32
75136;BME280;63707;52.212;9.540;2022-10-31T02:24:29;100535.00;;;11.53;85.98
75136;BME280;63707;52.212;9.540;2022-10-31T02:27:07;100539.22;;;11.55;85.75
75136;BME280;63707;52.212;9.540;2022-10-31T02:29:55;100516.56;;;11.61;85.44
75136;BME280;63707;52.212;9.540;2022-10-31T02:32:30;100523.66;;;11.56;85.74
75136;BME280;63707;52.212;9.540;2022-10-31T02:35:00;100536.91;;;11.59;85.28
75136;BME280;63707;52.212;9.540;2022-10-31T02:37:33;100533.31;;;11.52;86.45
75136;BME280;63707;52.212;9.540;2022-10-31T02:40:05;100529.69;;;11.45;86.86
75136;BME280;63707;52.212;9.540;2022-10-31T02:42:38;100536.63;;;11.47;86.48
75136;BME280;63707;52.212;9.540;2022-10-31T02:45:08;100539.56;;;11.46;86.59
75136;BME280;63707;52.212;9.540;2022-10-31T02:47:38;100530.34;;;11.47;86.66
75136;BME280;63707;52.212;9.540;2022-10-31T02:50:07;100533.28;;;11.45;86.81
75136;BME280;63707;52.212;9.540;2022-10-31T02:52:34;100539.94;;;11.36;87.27
75136;BME280;63707;52.212;9.540;2022-10-31T02:55:10;100531.91;;;11.34;88.00
75136;BME280;63707;52.212;9.540;2022-10-31T02:57:36;100530.91;;;11.35;88.28
75136;BME280;63707;52.212;9.540;2022-10-31T03:00:06;100533.81;;;11.34;88.80
75136;BME280;63707;52.212;9.540;2022-10-31T03:02:55;100529.91;;;11.43;89.00
75136;BME280;63707;52.212;9.540;2022-10-31T03:05:37;100535.97;;;11.39;88.96
75136;BME280;63707;52.212;9.540;2022-10-31T03:08:13;100528.09;;;11.29;89.60
75136;BME280;63707;52.212;9.540;2022-10-31T03:10:45;100532.72;;;11.28;90.48
75136;BME280;63707;52.212;9.540;2022-10-31T03:13:21;100533.81;;;11.34;90.07
75136;BME280;63707;52.212;9.540;2022-10-31T03:15:51;100529.16;;;11.28;90.96
75136;BME280;63707;52.212;9.540;2022-10-31T03:18:21;100534.75;;;11.20;91.35
75136;BME280;63707;52.212;9.540;2022-10-31T03:20:55;100544.97;;;11.11;91.09
75136;BME280;63707;52.212;9.540;2022-10-31T03:23:25;100538.94;;;11.16;91.66
75136;BME280;63707;52.212;9.540;2022-10-31T03:25:53;100546.22;;;11.09;92.07
75136;BME280;63707;52.212;9.540;2022-10-31T03:28:23;100548.31;;;11.07;92.23
75136;BME280;63707;52.212;9.540;2022-10-31T03:30:51;100551.47;;;11.10;91.93
75136;BME280;63707;52.212;9.540;2022-10-31T03:33:23;100553.56;;;11.08;92.22
75136;BME280;63707;52.212;9.540;2022-10-31T03:35:52;100555.63;;;11.06;92.63
75136;BME280;63707;52.212;9.540;2022-10-31T03:38:19;100554.41;;;11.09;92.10
75136;BME280;63707;52.212;9.540;2022-10-31T03:40:46;100545.88;;;11.18;92.29
75136;BME280;63707;52.212;9.540;2022-10-31T03:43:16;100545.44;;;11.15;91.95
75136;BME280;63707;52.212;9.540;2022-10-31T03:45:45;100549.75;;;11.02;92.14
75136;BME280;63707;52.212;9.540;2022-10-31T03:48:13;100562.47;;;10.95;92.11
75136;BME280;63707;52.212;9.540;2022-10-31T03:50:46;100567.38;;;11.07;91.91
75136;BME280;63707;52.212;9.540;2022-10-31T03:53:19;100565.75;;;11.12;92.06
75136;BME280;63707;52.212;9.540;2022-10-31T03:55:48;100577.59;;;11.26;91.35
75136;BME280;63707;52.212;9.540;2022-10-31T03:58:20;100569.94;;;11.36;91.30
75136;BME280;63707;52.212;9.540;2022-10-31T04:00:49;100571.44;;;11.39;91.21
75136;BME280;63707;52.212;9.540;2022-10-31T04:03:21;100575.00;;;11.39;90.58
75136;BME280;63707;52.212;9.540;2022-10-31T04:05:50;100585.91;;;11.39;90.86
75136;BME280;63707;52.212;9.540;2022-10-31T04:08:21;100580.50;;;11.46;91.06
75136;BME280;63707;52.212;9.540;2022-10-31T04:10:49;100583.03;;;11.47;90.84
75136;BME280;63707;52.212;9.540;2022-10-31T04:13:20;100587.00;;;11.45;91.55
75136;BME280;63707;52.212;9.540;2022-10-31T04:15:47;100585.72;;;11.41;91.58
75136;BME280;63707;52.212;9.540;2022-10-31T04:18:14;100591.63;;;11.44;91.37
75136;BME280;63707;52.212;9.540;2022-10-31T04:20:41;100594.16;;;11.46;90.70
75136;BME280;63707;52.212;9.540;2022-10-31T04:23:15;100591.41;;;11.46;90.99
75136;BME280;63707;52.212;9.540;2022-10-31T04:25:43;100588.03;;;11.44;91.54
75136;BME280;63707;52.212;9.540;2022-10-31T04:28:09;100588.25;;;11.42;90.86
75136;BME280;63707;52.212;9.540;2022-10-31T04:30:34;100592.97;;;11.33;91.24
75136;BME280;63707;52.212;9.540;2022-10-31T04:33:00;100587.72;;;11.32;91.49
75136;BME280;63707;52.212;9.540;2022-10-31T04:35:26;100590.59;;;11.24;91.49
75136;BME280;63707;52.212;9.540;2022-10-31T04:37:51;100590.91;;;11.08;92.08
75136;BME280;63707;52.212;9.540;2022-10-31T04:40:18;100592.88;;;10.92;91.65
75136;BME280;63707;52.212;9.540;2022-10-31T04:42:43;100591.66;;;10.80;91.96
75136;BME280;63707;52.212;9.540;2022-10-31T04:45:09;100584.84;;;10.69;92.71
75136;BME280;63707;52.212;9.540;2022-10-31T04:47:34;100586.41;;;10.57;92.54
75136;BME280;63707;52.212;9.540;2022-10-31T04:50:00;100588.16;;;10.44;92.76
75136;BME280;63707;52.212;9.540;2022-10-31T04:52:26;100580.47;;;10.32;93.14
75136;BME280;63707;52.212;9.540;2022-10-31T04:54:51;100578.13;;;10.29;92.94
75136;BME280;63707;52.212;9.540;2022-10-31T04:57:18;100572.31;;;10.18;92.99
75136;BME280;63707;52.212;9.540;2022-10-31T04:59:44;100578.25;;;10.06;93.16
75136;BME280;63707;52.212;9.540;2022-10-31T05:02:09;100584.53;;;10.07;93.45
75136;BME280;63707;52.212;9.540;2022-10-31T05:04:35;100586.59;;;10.05;93.21
75136;BME280;63707;52.212;9.540;2022-10-31T05:07:00;100582.13;;;9.97;94.04
75136;BME280;63707;52.212;9.540;2022-10-31T05:09:25;100585.56;;;9.91;94.48
75136;BME280;63707;52.212;9.540;2022-10-31T05:11:51;100574.78;;;9.83;94.31
75136;BME280;63707;52.212;9.540;2022-10-31T05:14:18;100576.28;;;9.86;94.21
75136;BME280;63707;52.212;9.540;2022-10-31T05:16:43;100585.78;;;9.75;94.46
75136;BME280;63707;52.212;9.540;2022-10-31T05:19:09;100584.19;;;9.66;94.42
75136;BME280;63707;52.212;9.540;2022-10-31T05:21:34;100579.94;;;9.78;93.97
75136;BME280;63707;52.212;9.540;2022-10-31T05:24:00;100578.25;;;9.77;94.04
75136;BME280;63707;52.212;9.540;2022-10-31T05:26:25;100579.28;;;9.76;94.47
75136;BME280;63707;52.212;9.540;2022-10-31T05:28:51;100581.56;;;9.72;94.66
75136;BME280;63707;52.212;9.540;2022-10-31T05:31:17;100584.75;;;9.61;95.40
75136;BME280;63707;52.212;9.540;2022-10-31T05:33:43;100581.47;;;9.66;95.27
75136;BME280;63707;52.212;9.540;2022-10-31T05:36:08;100576.41;;;9.63;95.94
75136;BME280;63707;52.212;9.540;2022-10-31T05:38:34;100583.72;;;9.62;95.63
75136;BME280;63707;52.212;9.540;2022-10-31T05:41:01;100576.28;;;9.71;96.25
75136;BME280;63707;52.212;9.540;2022-10-31T05:43:27;100576.09;;;9.72;96.35
75136;BME280;63707;52.212;9.540;2022-10-31T05:45:52;100577.31;;;9.70;96.06
75136;BME280;63707;52.212;9.540;2022-10-31T05:48:20;100582.38;;;9.88;96.25
75136;BME280;63707;52.212;9.540;2022-10-31T05:50:47;100579.19;;;9.84;96.19
75136;BME280;63707;52.212;9.540;2022-10-31T05:53:13;100584.84;;;9.68;96.19
75136;BME280;63707;52.212;9.540;2022-10-31T05:55:38;100586.53;;;9.69;96.01
75136;BME280;63707;52.212;9.540;2022-10-31T05:58:05;100584.66;;;9.69;96.38
75136;BME280;63707;52.212;9.540;2022-10-31T06:00:31;100584.38;;;9.64;96.43
75136;BME280;63707;52.212;9.540;2022-10-31T06:02:59;100583.72;;;9.62;96.90
75136;BME280;63707;52.212;9.540;2022-10-31T06:05:26;100583.72;;;9.62;96.60
75136;BME280;63707;52.212;9.540;2022-10-31T06:07:52;100568.78;;;9.88;96.34
75136;BME280;63707;52.212;9.540;2022-10-31T06:10:17;100568.19;;;9.92;96.25
75136;BME280;63707;52.212;9.540;2022-10-31T06:12:44;100571.13;;;10.05;97.32
75136;BME280;63707;52.212;9.540;2022-10-31T06:15:10;100569.81;;;10.01;96.63
75136;BME280;63707;52.212;9.540;2022-10-31T06:17:36;100572.44;;;9.95;95.97
75136;BME280;63707;52.212;9.540;2022-10-31T06:20:02;100566.16;;;9.79;95.62
75136;BME280;63707;52.212;9.540;2022-10-31T06:22:29;100574.88;;;9.75;95.73
75136;BME280;63707;52.212;9.540;2022-10-31T06:24:55;100582.00;;;9.91;96.06
75136;BME280;63707;52.212;9.540;2022-10-31T06:27:21;100571.75;;;9.93;95.76
75136;BME280;63707;52.212;9.540;2022-10-31T06:29:47;100580.63;;;9.95;95.78
75136;BME280;63707;52.212;9.540;2022-10-31T06:32:13;100582.97;;;9.98;95.89
75136;BME280;63707;52.212;9.540;2022-10-31T06:34:39;100577.69;;;9.96;95.42
75136;BME280;63707;52.212;9.540;2022-10-31T06:37:05;100587.56;;;9.97;95.91
75136;BME280;63707;52.212;9.540;2022-10-31T06:39:32;100583.59;;;10.15;96.07
75136;BME280;63707;52.212;9.540;2022-10-31T06:41:58;100587.66;;;10.40;95.97
75136;BME280;63707;52.212;9.540;2022-10-31T06:44:24;100586.94;;;10.46;95.48
75136;BME280;63707;52.212;9.540;2022-10-31T06:46:49;100595.38;;;10.51;94.59
75136;BME280;63707;52.212;9.540;2022-10-31T06:49:15;100597.97;;;10.59;94.85
75136;BME280;63707;52.212;9.540;2022-10-31T06:51:41;100609.44;;;10.55;94.14
75136;BME280;63707;52.212;9.540;2022-10-31T06:54:06;100610.75;;;10.59;94.48
75136;BME280;63707;52.212;9.540;2022-10-31T06:56:33;100606.94;;;10.75;93.91
75136;BME280;63707;52.212;9.540;2022-10-31T06:58:58;100613.09;;;10.62;92.90
75136;BME280;63707;52.212;9.540;2022-10-31T07:01:24;100608.22;;;10.57;92.60
75136;BME280;63707;52.212;9.540;2022-10-31T07:03:50;100611.13;;;10.56;92.21
75136;BME280;63707;52.212;9.540;2022-10-31T07:06:15;100624.38;;;10.59;92.20
75136;BME280;63707;52.212;9.540;2022-10-31T07:08:41;100612.88;;;10.63;91.40
75136;BME280;63707;52.212;9.540;2022-10-31T07:11:06;100620.16;;;10.56;91.81
75136;BME280;63707;52.212;9.540;2022-10-31T07:13:33;100615.03;;;10.68;91.53
75136;BME280;63707;52.212;9.540;2022-10-31T07:16:01;100610.88;;;10.72;90.73
75136;BME280;63707;52.212;9.540;2022-10-31T07:18:28;100619.31;;;10.77;90.90
75136;BME280;63707;52.212;9.540;2022-10-31T07:20:53;100620.31;;;10.91;90.62
75136;BME280;63707;52.212;9.540;2022-10-31T07:23:19;100625.13;;;10.89;89.83
75136;BME280;63707;52.212;9.540;2022-10-31T07:25:45;100626.16;;;11.09;88.97
75136;BME280;63707;52.212;9.540;2022-10-31T07:28:11;100624.56;;;11.21;88.56
75136;BME280;63707;52.212;9.540;2022-10-31T07:30:38;100630.06;;;11.49;87.98
75136;BME280;63707;52.212;9.540;2022-10-31T07:33:04;100634.94;;;11.54;86.98
75136;BME280;63707;52.212;9.540;2022-10-31T07:35:31;100638.69;;;11.53;87.32
75136;BME280;63707;52.212;9.540;2022-10-31T07:37:57;100650.00;;;11.50;88.29
75136;BME280;63707;52.212;9.540;2022-10-31T07:40:23;100642.38;;;11.94;86.92
75136;BME280;63707;52.212;9.540;2022-10-31T07:42:50;100640.03;;;12.80;84.12
75136;BME280;63707;52.212;9.540;2022-10-31T07:45:17;100636.72;;;13.11;82.59
75136;BME280;63707;52.212;9.540;2022-10-31T07:47:46;100634.88;;;13.38;81.97
75136;BME280;63707;52.212;9.540;2022-10-31T07:50:14;100629.06;;;14.12;78.54
75136;BME280;63707;52.212;9.540;2022-10-31T07:52:40;100629.69;;;14.28;78.41
75136;BME280;63707;52.212;9.540;2022-10-31T07:55:06;100627.53;;;15.12;74.98
75136;BME280;63707;52.212;9.540;2022-10-31T07:57:32;100626.75;;;15.05;74.01
75136;BME280;63707;52.212;9.540;2022-10-31T07:59:57;100630.78;;;14.71;75.81
75136;BME280;63707;52.212;9.540;2022-10-31T08:02:23;100628.13;;;15.21;75.17
75136;BME280;63707;52.212;9.540;2022-10-31T08:04:50;100625.78;;;15.25;74.71
75136;BME280;63707;52.212;9.540;2022-10-31T08:07:19;100629.91;;;14.20;75.81
75136;BME280;63707;52.212;9.540;2022-10-31T08:09:44;100631.41;;;14.73;75.81
75136;BME280;63707;52.212;9.540;2022-10-31T08:12:10;100630.91;;;14.83;73.69
75136;BME280;63707;52.212;9.540;2022-10-31T08:14:35;100623.75;;;14.82;74.61
75136;BME280;63707;52.212;9.540;2022-10-31T08:17:01;100629.28;;;15.07;72.94
75136;BME280;63707;52.212;9.540;2022-10-31T08:19:26;100632.41;;;16.28;69.79
75136;BME280;63707;52.212;9.540;2022-10-31T08:21:53;100621.00;;;16.43;68.60
75136;BME280;63707;52.212;9.540;2022-10-31T08:24:23;100623.16;;;16.59;68.23
75136;BME280;63707;52.212;9.540;2022-10-31T08:26:49;100617.44;;;16.91;67.32
75136;BME280;63707;52.212;9.540;2022-10-31T08:29:15;100613.84;;;15.37;72.40
75136;BME280;63707;52.212;9.540;2022-10-31T08:31:40;100610.31;;;15.80;71.25
75136;BME280;63707;52.212;9.540;2022-10-31T08:34:06;100602.44;;;17.17;66.54
75136;BME280;63707;52.212;9.540;2022-10-31T08:36:32;100602.56;;;16.80;68.20
75136;BME280;63707;52.212;9.540;2022-10-31T08:38:59;100604.25;;;16.63;68.24
75136;BME280;63707;52.212;9.540;2022-10-31T08:41:25;100604.81;;;16.72;67.49
75136;BME280;63707;52.212;9.540;2022-10-31T08:43:51;100592.66;;;16.61;68.73
75136;BME280;63707;52.212;9.540;2022-10-31T08:46:16;100581.69;;;16.24;69.89
75136;BME280;63707;52.212;9.540;2022-10-31T08:48:42;100586.28;;;15.76;72.59
75136;BME280;63707;52.212;9.540;2022-10-31T08:51:08;100593.56;;;15.38;73.85
75136;BME280;63707;52.212;9.540;2022-10-31T08:53:34;100581.69;;;15.69;73.06
75136;BME280;63707;52.212;9.540;2022-10-31T08:56:01;100584.81;;;15.91;72.79
75136;BME280;63707;52.212;9.540;2022-10-31T08:58:27;100584.00;;;16.09;71.96
75136;BME280;63707;52.212;9.540;2022-10-31T09:00:53;100576.16;;;16.43;71.24
75136;BME280;63707;52.212;9.540;2022-10-31T09:03:21;100589.47;;;15.91;71.68
75136;BME280;63707;52.212;9.540;2022-10-31T09:05:47;100589.16;;;15.62;74.12
75136;BME280;63707;52.212;9.540;2022-10-31T09:08:13;100586.75;;;15.91;72.56
75136;BME280;63707;52.212;9.540;2022-10-31T09:10:39;100586.66;;;15.97;71.55
75136;BME280;63707;52.212;9.540;2022-10-31T09:13:09;100594.75;;;15.74;72.59
75136;BME280;63707;52.212;9.540;2022-10-31T09:15:36;100592.66;;;16.43;70.24
75136;BME280;63707;52.212;9.540;2022-10-31T09:18:03;100589.69;;;16.44;69.85
75136;BME280;63707;52.212;9.540;2022-10-31T09:20:31;100597.34;;;15.87;71.87
75136;BME280;63707;52.212;9.540;2022-10-31T09:22:57;100601.81;;;15.14;74.76
75136;BME280;63707;52.212;9.540;2022-10-31T09:25:23;100590.66;;;15.58;73.28
75136;BME280;63707;52.212;9.540;2022-10-31T09:27:49;100593.16;;;15.60;72.66
75136;BME280;63707;52.212;9.540;2022-10-31T09:30:16;100584.66;;;16.04;71.61
75136;BME280;63707;52.212;9.540;2022-10-31T09:32:42;100583.22;;;15.84;73.05
75136;BME280;63707;52.212;9.540;2022-10-31T09:35:08;100575.00;;;16.20;71.84
75136;BME280;63707;52.212;9.540;2022-10-31T09:37:33;100583.59;;;15.87;72.29
75136;BME280;63707;52.212;9.540;2022-10-31T09:39:59;100587.59;;;16.10;70.68
75136;BME280;63707;52.212;9.540;2022-10-31T09:42:52;100581.25;;;16.27;70.12
75136;BME280;63707;52.212;9.540;2022-10-31T09:45:26;100580.44;;;16.38;70.47
75136;BME280;63707;52.212;9.540;2022-10-31T09:47:57;100575.66;;;16.34;69.80
75136;BME280;63707;52.212;9.540;2022-10-31T09:50:29;100577.28;;;16.23;70.97
75136;BME280;63707;52.212;9.540;2022-10-31T09:52:59;100574.25;;;16.61;69.86
75136;BME280;63707;52.212;9.540;2022-10-31T09:55:31;100574.31;;;16.55;70.02
75136;BME280;63707;52.212;9.540;2022-10-31T09:58:00;100582.56;;;16.73;69.54
75136;BME280;63707;52.212;9.540;2022-10-31T10:00:28;100573.38;;;16.79;70.41
75136;BME280;63707;52.212;9.540;2022-10-31T10:03:02;100575.38;;;17.25;68.27
75136;BME280;63707;52.212;9.540;2022-10-31T10:05:34;100564.78;;;16.99;68.16
75136;BME280;63707;52.212;9.540;2022-10-31T10:08:08;100583.53;;;16.79;68.97
75136;BME280;63707;52.212;9.540;2022-10-31T10:10:44;100574.78;;;16.70;70.37
75136;BME280;63707;52.212;9.540;2022-10-31T10:13:27;100572.53;;;16.30;71.59
75136;BME280;63707;52.212;9.540;2022-10-31T10:16:12;100570.47;;;15.89;72.17
75136;BME280;63707;52.212;9.540;2022-10-31T10:19:01;100570.88;;;16.89;69.86
75136;BME280;63707;52.212;9.540;2022-10-31T10:21:36;100562.47;;;16.73;69.47
75136;BME280;63707;52.212;9.540;2022-10-31T10:24:17;100567.53;;;16.87;69.29
75136;BME280;63707;52.212;9.540;2022-10-31T10:26:53;100561.25;;;16.50;69.67
75136;BME280;63707;52.212;9.540;2022-10-31T10:29:31;100566.78;;;16.32;69.95
75136;BME280;63707;52.212;9.540;2022-10-31T10:32:11;100561.38;;;16.07;71.89
75136;BME280;63707;52.212;9.540;2022-10-31T10:34:43;100563.84;;;16.45;70.97
75136;BME280;63707;52.212;9.540;2022-10-31T10:37:19;100552.06;;;16.75;70.78
75136;BME280;63707;52.212;9.540;2022-10-31T10:39:54;100551.91;;;16.51;70.43
75136;BME280;63707;52.212;9.540;2022-10-31T10:42:22;100552.59;;;16.65;70.47
75136;BME280;63707;52.212;9.540;2022-10-31T10:45:14;100541.63;;;17.18;68.37
75136;BME280;63707;52.212;9.540;2022-10-31T10:48:07;100537.56;;;17.56;67.88
75136;BME280;63707;52.212;9.540;2022-10-31T10:50:41;100540.09;;;17.69;67.12
75136;BME280;63707;52.212;9.540;2022-10-31T10:53:28;100537.88;;;17.94;66.11
75136;BME280;63707;52.212;9.540;2022-10-31T10:56:11;100538.03;;;17.88;67.04
75136;BME280;63707;52.212;9.540;2022-10-31T10:58:40;100530.59;;;17.88;65.76
75136;BME280;63707;52.212;9.540;2022-10-31T11:01:10;100526.81;;;18.18;65.51
75136;BME280;63707;52.212;9.540;2022-10-31T11:03:38;100533.03;;;18.53;64.37
75136;BME280;63707;52.212;9.540;2022-10-31T11:06:04;100526.22;;;19.01;63.12
75136;BME280;63707;52.212;9.540;2022-10-31T11:08:40;100523.97;;;18.13;64.57
75136;BME280;63707;52.212;9.540;2022-10-31T11:11:10;100525.34;;;17.75;65.70
75136;BME280;63707;52.212;9.540;2022-10-31T11:13:41;100524.50;;;17.75;66.52
75136;BME280;63707;52.212;9.540;2022-10-31T11:16:09;100521.38;;;17.59;67.50
75136;BME280;63707;52.212;9.540;2022-10-31T11:18:39;100510.22;;;17.89;66.37
75136;BME280;63707;52.212;9.540;2022-10-31T11:21:05;100513.66;;;17.97;65.78
75136;BME280;63707;52.212;9.540;2022-10-31T11:23:32;100506.63;;;18.29;65.51
75136;BME280;63707;52.212;9.540;2022-10-31T11:25:59;100514.19;;;17.82;67.54
75136;BME280;63707;52.212;9.540;2022-10-31T11:28:25;100507.78;;;18.05;65.59
75136;BME280;63707;52.212;9.540;2022-10-31T11:30:53;100507.84;;;17.81;66.77
75136;BME280;63707;52.212;9.540;2022-10-31T11:33:25;100490.34;;;16.94;69.08
75136;BME280;63707;52.212;9.540;2022-10-31T11:35:53;100485.81;;;17.35;68.11
75136;BME280;63707;52.212;9.540;2022-10-31T11:38:21;100490.47;;;17.34;68.98
75136;BME280;63707;52.212;9.540;2022-10-31T11:40:52;100481.97;;;17.47;68.30
75136;BME280;63707;52.212;9.540;2022-10-31T11:43:19;100490.81;;;17.49;69.07
75136;BME280;63707;52.212;9.540;2022-10-31T11:45:44;100491.06;;;17.83;67.32
75136;BME280;63707;52.212;9.540;2022-10-31T11:48:16;100481.47;;;17.85;66.74
75136;BME280;63707;52.212;9.540;2022-10-31T11:50:48;100481.25;;;17.63;67.54
75136;BME280;63707;52.212;9.540;2022-10-31T11:53:17;100470.25;;;17.52;67.93
75136;BME280;63707;52.212;9.540;2022-10-31T11:55:45;100467.97;;;17.25;68.53
75136;BME280;63707;52.212;9.540;2022-10-31T11:58:21;100466.16;;;17.43;67.91
75136;BME280;63707;52.212;9.540;2022-10-31T12:00:49;100459.94;;;17.59;67.84
75136;BME280;63707;52.212;9.540;2022-10-31T12:03:26;100457.91;;;17.43;67.17
75136;BME280;63707;52.212;9.540;2022-10-31T12:05:55;100459.97;;;17.24;68.37
75136;BME280;63707;52.212;9.540;2022-10-31T12:12:29;100424.44;;;24.27;54.89
75136;BME280;63707;52.212;9.540;2022-10-31T12:16:28;100424.84;;;24.05;54.79
75136;BME280;63707;52.212;9.540;2022-10-31T12:21:53;100444.50;;;19.22;59.49
75136;BME280;63707;52.212;9.540;2022-10-31T12:24:34;100441.31;;;19.13;60.82
75136;BME280;63707;52.212;9.540;2022-10-31T12:27:10;100441.94;;;18.65;62.36
75136;BME280;63707;52.212;9.540;2022-10-31T12:30:00;100445.03;;;18.40;63.65
75136;BME280;63707;52.212;9.540;2022-10-31T12:32:34;100436.97;;;18.22;64.03
75136;BME280;63707;52.212;9.540;2022-10-31T12:35:33;100430.63;;;18.21;65.33
75136;BME280;63707;52.212;9.540;2022-10-31T12:38:18;100424.56;;;18.08;64.30
75136;BME280;63707;52.212;9.540;2022-10-31T12:40:58;100426.34;;;18.14;64.95
75136;BME280;63707;52.212;9.540;2022-10-31T12:43:35;100428.63;;;17.77;65.61
75136;BME280;63707;52.212;9.540;2022-10-31T12:46:07;100426.63;;;17.49;66.01
75136;BME280;63707;52.212;9.540;2022-10-31T12:49:04;100421.16;;;17.25;67.12
75136;BME280;63707;52.212;9.540;2022-10-31T12:51:38;100416.16;;;17.11;67.63
75136;BME280;63707;52.212;9.540;2022-10-31T12:57:06;100401.75;;;17.32;67.94
75136;BME280;63707;52.212;9.540;2022-10-31T12:59:35;100394.31;;;17.33;68.56
75136;BME280;63707;52.212;9.540;2022-10-31T13:02:06;100396.44;;;17.42;66.98
75136;BME280;63707;52.212;9.540;2022-10-31T13:04:42;100384.44;;;17.60;66.85
75136;BME280;63707;52.212;9.540;2022-10-31T13:07:12;100383.25;;;17.56;68.52
75136;BME280;63707;52.212;9.540;2022-10-31T13:09:46;100375.38;;;17.88;67.79
75136;BME280;63707;52.212;9.540;2022-10-31T13:12:16;100380.28;;;17.46;67.31